sensor_id;sensor_type;location;lat;lon;timestamp;P1;durP1;ratioP1;P2;durP2;ratioP2
75814;SDS011;70031;45.570;14.228;2023-09-19T00:05:24;26.48;;;14.77;;
75814;SDS011;70031;45.570;14.228;2023-09-19T00:10:54;23.50;;;13.60;;
75814;SDS011;70031;45.570;14.228;2023-09-19T00:16:09;20.55;;;14.68;;
75814;SDS011;70031;45.570;14.228;2023-09-19T00:18:28;25.25;;;13.77;;
75814;SDS011;70031;45.570;14.228;2023-09-19T00:20:52;23.85;;;13.70;;
75814;SDS011;70031;45.570;14.228;2023-09-19T00:25:50;30.48;;;13.85;;
75814;SDS011;70031;45.570;14.228;2023-09-19T00:28:19;22.58;;;14.32;;
75814;SDS011;70031;45.570;14.228;2023-09-19T00:30:50;23.50;;;14.15;;
75814;SDS011;70031;45.570;14.228;2023-09-19T00:32:53;24.52;;;13.18;;
75814;SDS011;70031;45.570;14.228;2023-09-19T00:35:16;26.23;;;13.13;;
75814;SDS011;70031;45.570;14.228;2023-09-19T00:37:20;27.92;;;12.07;;
75814;SDS011;70031;45.570;14.228;2023-09-19T00:39:36;23.40;;;12.25;;
75814;SDS011;70031;45.570;14.228;2023-09-19T00:44:47;25.25;;;12.20;;
75814;SDS011;70031;45.570;14.228;2023-09-19T00:47:09;22.65;;;11.88;;
75814;SDS011;70031;45.570;14.228;2023-09-19T00:49:24;19.83;;;10.30;;
75814;SDS011;70031;45.570;14.228;2023-09-19T00:51:36;23.98;;;11.38;;
75814;SDS011;70031;45.570;14.228;2023-09-19T00:53:42;21.92;;;10.60;;
75814;SDS011;70031;45.570;14.228;2023-09-19T00:56:00;21.33;;;11.18;;
75814;SDS011;70031;45.570;14.228;2023-09-19T00:58:53;26.77;;;11.15;;
75814;SDS011;70031;45.570;14.228;2023-09-19T01:01:02;23.23;;;11.07;;
75814;SDS011;70031;45.570;14.228;2023-09-19T01:03:06;24.73;;;11.55;;
75814;SDS011;70031;45.570;14.228;2023-09-19T01:05:35;23.77;;;10.43;;
75814;SDS011;70031;45.570;14.228;2023-09-19T01:08:19;32.25;;;12.27;;
75814;SDS011;70031;45.570;14.228;2023-09-19T01:10:29;22.48;;;11.93;;
75814;SDS011;70031;45.570;14.228;2023-09-19T01:12:37;23.55;;;10.15;;
75814;SDS011;70031;45.570;14.228;2023-09-19T01:15:05;28.17;;;11.10;;
75814;SDS011;70031;45.570;14.228;2023-09-19T01:17:30;30.10;;;9.82;;
75814;SDS011;70031;45.570;14.228;2023-09-19T01:25:06;25.00;;;11.00;;
75814;SDS011;70031;45.570;14.228;2023-09-19T01:33:04;24.10;;;10.73;;
75814;SDS011;70031;45.570;14.228;2023-09-19T01:35:53;27.73;;;9.85;;
75814;SDS011;70031;45.570;14.228;2023-09-19T01:50:17;23.02;;;9.77;;
75814;SDS011;70031;45.570;14.228;2023-09-19T01:55:43;22.80;;;9.95;;
75814;SDS011;70031;45.570;14.228;2023-09-19T02:01:16;23.33;;;9.27;;
75814;SDS011;70031;45.570;14.228;2023-09-19T02:03:50;27.40;;;10.05;;
75814;SDS011;70031;45.570;14.228;2023-09-19T02:06:19;27.88;;;10.52;;
75814;SDS011;70031;45.570;14.228;2023-09-19T02:08:27;22.50;;;9.88;;
75814;SDS011;70031;45.570;14.228;2023-09-19T02:15:48;29.30;;;11.27;;
75814;SDS011;70031;45.570;14.228;2023-09-19T02:21:18;22.80;;;10.02;;
75814;SDS011;70031;45.570;14.228;2023-09-19T02:25:39;24.98;;;9.75;;
75814;SDS011;70031;45.570;14.228;2023-09-19T02:27:49;29.13;;;11.00;;
75814;SDS011;70031;45.570;14.228;2023-09-19T02:29:54;27.20;;;10.98;;
75814;SDS011;70031;45.570;14.228;2023-09-19T02:32:20;30.25;;;11.52;;
75814;SDS011;70031;45.570;14.228;2023-09-19T02:34:20;26.60;;;11.00;;
75814;SDS011;70031;45.570;14.228;2023-09-19T02:36:42;28.77;;;11.75;;
75814;SDS011;70031;45.570;14.228;2023-09-19T02:38:53;26.67;;;11.70;;
75814;SDS011;70031;45.570;14.228;2023-09-19T02:41:15;24.95;;;11.27;;
75814;SDS011;70031;45.570;14.228;2023-09-19T02:46:07;28.33;;;10.52;;
75814;SDS011;70031;45.570;14.228;2023-09-19T02:48:12;27.52;;;10.43;;
75814;SDS011;70031;45.570;14.228;2023-09-19T02:50:41;35.90;;;12.98;;
75814;SDS011;70031;45.570;14.228;2023-09-19T02:52:43;21.60;;;10.65;;
75814;SDS011;70031;45.570;14.228;2023-09-19T02:55:02;29.42;;;11.63;;
75814;SDS011;70031;45.570;14.228;2023-09-19T02:57:13;23.83;;;12.10;;
75814;SDS011;70031;45.570;14.228;2023-09-19T02:59:40;28.10;;;11.85;;
75814;SDS011;70031;45.570;14.228;2023-09-19T03:02:02;24.63;;;11.70;;
75814;SDS011;70031;45.570;14.228;2023-09-19T03:06:51;25.42;;;12.15;;
75814;SDS011;70031;45.570;14.228;2023-09-19T03:09:01;23.80;;;11.60;;
75814;SDS011;70031;45.570;14.228;2023-09-19T03:11:12;24.95;;;10.95;;
75814;SDS011;70031;45.570;14.228;2023-09-19T03:13:25;33.60;;;11.20;;
75814;SDS011;70031;45.570;14.228;2023-09-19T03:15:28;25.95;;;11.93;;
75814;SDS011;70031;45.570;14.228;2023-09-19T03:17:31;24.50;;;11.93;;
75814;SDS011;70031;45.570;14.228;2023-09-19T03:19:36;31.50;;;12.25;;
75814;SDS011;70031;45.570;14.228;2023-09-19T03:21:39;27.02;;;12.15;;
75814;SDS011;70031;45.570;14.228;2023-09-19T03:26:04;24.95;;;11.63;;
75814;SDS011;70031;45.570;14.228;2023-09-19T03:30:37;20.65;;;11.80;;
75814;SDS011;70031;45.570;14.228;2023-09-19T03:35:23;23.13;;;13.45;;
75814;SDS011;70031;45.570;14.228;2023-09-19T03:37:49;26.98;;;13.73;;
75814;SDS011;70031;45.570;14.228;2023-09-19T03:40:09;24.38;;;13.93;;
75814;SDS011;70031;45.570;14.228;2023-09-19T03:42:30;28.92;;;13.65;;
75814;SDS011;70031;45.570;14.228;2023-09-19T03:44:43;23.92;;;14.07;;
75814;SDS011;70031;45.570;14.228;2023-09-19T03:46:55;32.15;;;15.48;;
75814;SDS011;70031;45.570;14.228;2023-09-19T03:48:59;24.70;;;13.27;;
75814;SDS011;70031;45.570;14.228;2023-09-19T03:53:43;29.60;;;14.52;;
75814;SDS011;70031;45.570;14.228;2023-09-19T03:58:48;23.67;;;13.50;;
75814;SDS011;70031;45.570;14.228;2023-09-19T04:01:03;29.63;;;14.10;;
75814;SDS011;70031;45.570;14.228;2023-09-19T04:03:13;28.75;;;13.45;;
75814;SDS011;70031;45.570;14.228;2023-09-19T04:05:43;28.70;;;15.80;;
75814;SDS011;70031;45.570;14.228;2023-09-19T04:13:03;24.05;;;14.80;;
75814;SDS011;70031;45.570;14.228;2023-09-19T04:15:04;29.40;;;14.70;;
75814;SDS011;70031;45.570;14.228;2023-09-19T04:17:10;34.10;;;15.75;;
75814;SDS011;70031;45.570;14.228;2023-09-19T04:19:13;32.88;;;15.90;;
75814;SDS011;70031;45.570;14.228;2023-09-19T04:21:48;29.92;;;15.13;;
75814;SDS011;70031;45.570;14.228;2023-09-19T04:26:16;24.08;;;13.82;;
75814;SDS011;70031;45.570;14.228;2023-09-19T04:30:51;30.45;;;16.70;;
75814;SDS011;70031;45.570;14.228;2023-09-19T04:32:55;30.15;;;13.63;;
75814;SDS011;70031;45.570;14.228;2023-09-19T04:35:01;28.17;;;15.18;;
75814;SDS011;70031;45.570;14.228;2023-09-19T04:37:05;25.63;;;16.00;;
75814;SDS011;70031;45.570;14.228;2023-09-19T04:39:20;29.33;;;15.40;;
75814;SDS011;70031;45.570;14.228;2023-09-19T04:41:47;29.92;;;15.65;;
75814;SDS011;70031;45.570;14.228;2023-09-19T04:44:10;27.65;;;15.82;;
75814;SDS011;70031;45.570;14.228;2023-09-19T04:46:28;33.70;;;14.10;;
75814;SDS011;70031;45.570;14.228;2023-09-19T04:48:41;32.35;;;13.93;;
75814;SDS011;70031;45.570;14.228;2023-09-19T04:56:19;25.98;;;13.43;;
75814;SDS011;70031;45.570;14.228;2023-09-19T04:58:35;31.02;;;14.32;;
75814;SDS011;70031;45.570;14.228;2023-09-19T05:00:41;32.65;;;14.48;;
75814;SDS011;70031;45.570;14.228;2023-09-19T05:03:17;34.28;;;15.35;;
75814;SDS011;70031;45.570;14.228;2023-09-19T05:05:58;24.90;;;15.57;;
75814;SDS011;70031;45.570;14.228;2023-09-19T05:08:26;27.48;;;14.57;;
75814;SDS011;70031;45.570;14.228;2023-09-19T05:10:33;31.77;;;16.52;;
75814;SDS011;70031;45.570;14.228;2023-09-19T05:12:42;33.67;;;16.25;;
75814;SDS011;70031;45.570;14.228;2023-09-19T05:15:08;32.67;;;16.13;;
75814;SDS011;70031;45.570;14.228;2023-09-19T05:20:19;28.50;;;17.02;;
75814;SDS011;70031;45.570;14.228;2023-09-19T05:22:29;30.38;;;17.67;;
75814;SDS011;70031;45.570;14.228;2023-09-19T05:30:27;32.40;;;17.90;;
75814;SDS011;70031;45.570;14.228;2023-09-19T05:32:50;29.10;;;17.45;;
75814;SDS011;70031;45.570;14.228;2023-09-19T05:35:00;26.90;;;16.23;;
75814;SDS011;70031;45.570;14.228;2023-09-19T05:37:03;24.17;;;16.40;;
75814;SDS011;70031;45.570;14.228;2023-09-19T05:39:13;27.33;;;16.50;;
75814;SDS011;70031;45.570;14.228;2023-09-19T05:41:35;36.20;;;17.27;;
75814;SDS011;70031;45.570;14.228;2023-09-19T05:43:40;31.30;;;17.60;;
75814;SDS011;70031;45.570;14.228;2023-09-19T05:45:54;30.77;;;16.92;;
75814;SDS011;70031;45.570;14.228;2023-09-19T05:47:56;23.25;;;17.10;;
75814;SDS011;70031;45.570;14.228;2023-09-19T05:50:13;38.00;;;18.10;;
75814;SDS011;70031;45.570;14.228;2023-09-19T05:52:16;31.67;;;18.02;;
75814;SDS011;70031;45.570;14.228;2023-09-19T05:54:34;31.88;;;19.10;;
75814;SDS011;70031;45.570;14.228;2023-09-19T05:56:35;29.48;;;18.45;;
75814;SDS011;70031;45.570;14.228;2023-09-19T05:58:44;31.48;;;17.77;;
75814;SDS011;70031;45.570;14.228;2023-09-19T06:00:47;36.42;;;16.88;;
75814;SDS011;70031;45.570;14.228;2023-09-19T06:05:23;28.05;;;15.77;;
75814;SDS011;70031;45.570;14.228;2023-09-19T06:07:44;32.38;;;16.17;;
75814;SDS011;70031;45.570;14.228;2023-09-19T06:09:47;31.52;;;15.35;;
75814;SDS011;70031;45.570;14.228;2023-09-19T06:14:15;29.02;;;15.18;;
75814;SDS011;70031;45.570;14.228;2023-09-19T06:16:20;35.35;;;15.40;;
75814;SDS011;70031;45.570;14.228;2023-09-19T06:18:24;29.80;;;15.98;;
75814;SDS011;70031;45.570;14.228;2023-09-19T06:20:40;24.70;;;14.02;;
75814;SDS011;70031;45.570;14.228;2023-09-19T06:22:44;27.33;;;13.77;;
75814;SDS011;70031;45.570;14.228;2023-09-19T06:24:52;25.17;;;14.25;;
75814;SDS011;70031;45.570;14.228;2023-09-19T06:26:58;24.30;;;14.10;;
75814;SDS011;70031;45.570;14.228;2023-09-19T06:29:04;23.20;;;13.75;;
75814;SDS011;70031;45.570;14.228;2023-09-19T06:31:11;29.27;;;14.15;;
75814;SDS011;70031;45.570;14.228;2023-09-19T06:33:12;24.37;;;14.20;;
75814;SDS011;70031;45.570;14.228;2023-09-19T06:35:15;27.38;;;14.55;;
75814;SDS011;70031;45.570;14.228;2023-09-19T06:37:33;27.73;;;14.27;;
75814;SDS011;70031;45.570;14.228;2023-09-19T06:39:36;28.50;;;14.32;;
75814;SDS011;70031;45.570;14.228;2023-09-19T06:41:37;23.98;;;13.45;;
75814;SDS011;70031;45.570;14.228;2023-09-19T06:43:39;27.63;;;13.02;;
75814;SDS011;70031;45.570;14.228;2023-09-19T06:45:39;23.55;;;13.25;;
75814;SDS011;70031;45.570;14.228;2023-09-19T06:47:40;21.35;;;12.05;;
75814;SDS011;70031;45.570;14.228;2023-09-19T06:49:40;24.40;;;12.35;;
75814;SDS011;70031;45.570;14.228;2023-09-19T06:51:46;23.15;;;12.30;;
75814;SDS011;70031;45.570;14.228;2023-09-19T06:53:46;28.02;;;12.32;;
75814;SDS011;70031;45.570;14.228;2023-09-19T06:55:50;25.17;;;11.75;;
75814;SDS011;70031;45.570;14.228;2023-09-19T06:57:51;23.10;;;11.73;;
75814;SDS011;70031;45.570;14.228;2023-09-19T06:59:56;27.58;;;11.63;;
75814;SDS011;70031;45.570;14.228;2023-09-19T07:01:57;22.98;;;11.07;;
75814;SDS011;70031;45.570;14.228;2023-09-19T07:03:59;22.55;;;11.05;;
75814;SDS011;70031;45.570;14.228;2023-09-19T07:05:59;22.73;;;11.40;;
75814;SDS011;70031;45.570;14.228;2023-09-19T07:08:03;23.98;;;11.70;;
75814;SDS011;70031;45.570;14.228;2023-09-19T07:10:03;26.17;;;11.20;;
75814;SDS011;70031;45.570;14.228;2023-09-19T07:12:13;28.08;;;10.25;;
75814;SDS011;70031;45.570;14.228;2023-09-19T07:14:14;28.73;;;10.18;;
75814;SDS011;70031;45.570;14.228;2023-09-19T07:16:14;24.27;;;8.90;;
75814;SDS011;70031;45.570;14.228;2023-09-19T07:18:29;23.17;;;9.70;;
75814;SDS011;70031;45.570;14.228;2023-09-19T07:20:29;23.10;;;9.80;;
75814;SDS011;70031;45.570;14.228;2023-09-19T07:24:32;23.67;;;9.57;;
75814;SDS011;70031;45.570;14.228;2023-09-19T07:26:32;22.48;;;9.57;;
75814;SDS011;70031;45.570;14.228;2023-09-19T07:28:33;22.02;;;8.52;;
75814;SDS011;70031;45.570;14.228;2023-09-19T07:30:37;23.50;;;9.93;;
75814;SDS011;70031;45.570;14.228;2023-09-19T07:32:39;23.10;;;10.23;;
75814;SDS011;70031;45.570;14.228;2023-09-19T07:34:44;22.20;;;9.88;;
75814;SDS011;70031;45.570;14.228;2023-09-19T07:36:47;21.80;;;8.52;;
75814;SDS011;70031;45.570;14.228;2023-09-19T07:38:47;22.70;;;9.70;;
75814;SDS011;70031;45.570;14.228;2023-09-19T07:40:48;21.77;;;8.65;;
75814;SDS011;70031;45.570;14.228;2023-09-19T07:42:48;23.92;;;8.82;;
75814;SDS011;70031;45.570;14.228;2023-09-19T07:44:48;21.58;;;8.98;;
75814;SDS011;70031;45.570;14.228;2023-09-19T07:46:50;22.40;;;7.28;;
75814;SDS011;70031;45.570;14.228;2023-09-19T07:48:53;17.55;;;7.28;;
75814;SDS011;70031;45.570;14.228;2023-09-19T07:51:01;25.50;;;6.57;;
75814;SDS011;70031;45.570;14.228;2023-09-19T07:53:07;20.17;;;6.28;;
75814;SDS011;70031;45.570;14.228;2023-09-19T07:55:17;28.42;;;7.72;;
75814;SDS011;70031;45.570;14.228;2023-09-19T07:57:23;24.80;;;7.63;;
75814;SDS011;70031;45.570;14.228;2023-09-19T07:59:24;24.80;;;6.80;;
75814;SDS011;70031;45.570;14.228;2023-09-19T08:01:25;21.27;;;6.57;;
75814;SDS011;70031;45.570;14.228;2023-09-19T08:03:27;18.55;;;6.18;;
75814;SDS011;70031;45.570;14.228;2023-09-19T08:05:30;20.88;;;7.40;;
75814;SDS011;70031;45.570;14.228;2023-09-19T08:07:33;21.25;;;7.55;;
75814;SDS011;70031;45.570;14.228;2023-09-19T08:09:33;22.35;;;7.28;;
75814;SDS011;70031;45.570;14.228;2023-09-19T08:11:43;19.27;;;6.28;;
75814;SDS011;70031;45.570;14.228;2023-09-19T08:13:43;25.25;;;5.95;;
75814;SDS011;70031;45.570;14.228;2023-09-19T08:15:48;21.40;;;6.05;;
75814;SDS011;70031;45.570;14.228;2023-09-19T08:17:49;19.10;;;6.28;;
75814;SDS011;70031;45.570;14.228;2023-09-19T08:19:50;23.33;;;6.82;;
75814;SDS011;70031;45.570;14.228;2023-09-19T08:21:52;22.35;;;6.03;;
75814;SDS011;70031;45.570;14.228;2023-09-19T08:23:53;21.85;;;7.60;;
75814;SDS011;70031;45.570;14.228;2023-09-19T08:25:56;22.25;;;6.57;;
75814;SDS011;70031;45.570;14.228;2023-09-19T08:28:03;22.00;;;6.70;;
75814;SDS011;70031;45.570;14.228;2023-09-19T08:30:08;21.25;;;6.80;;
75814;SDS011;70031;45.570;14.228;2023-09-19T08:32:10;24.30;;;8.75;;
75814;SDS011;70031;45.570;14.228;2023-09-19T08:34:13;16.23;;;5.18;;
75814;SDS011;70031;45.570;14.228;2023-09-19T08:36:18;12.13;;;2.78;;
75814;SDS011;70031;45.570;14.228;2023-09-19T08:38:18;6.60;;;2.35;;
75814;SDS011;70031;45.570;14.228;2023-09-19T08:40:21;9.10;;;2.40;;
75814;SDS011;70031;45.570;14.228;2023-09-19T08:42:22;10.32;;;2.30;;
75814;SDS011;70031;45.570;14.228;2023-09-19T08:47:14;7.07;;;2.20;;
75814;SDS011;70031;45.570;14.228;2023-09-19T08:54:57;12.88;;;2.60;;
75814;SDS011;70031;45.570;14.228;2023-09-19T08:57:20;9.23;;;3.35;;
75814;SDS011;70031;45.570;14.228;2023-09-19T08:59:29;10.10;;;2.58;;
75814;SDS011;70031;45.570;14.228;2023-09-19T09:01:30;7.13;;;1.92;;
75814;SDS011;70031;45.570;14.228;2023-09-19T09:03:49;12.23;;;2.30;;
75814;SDS011;70031;45.570;14.228;2023-09-19T09:05:56;8.75;;;2.53;;
75814;SDS011;70031;45.570;14.228;2023-09-19T09:08:07;8.18;;;2.17;;
75814;SDS011;70031;45.570;14.228;2023-09-19T09:10:10;8.23;;;1.92;;
75814;SDS011;70031;45.570;14.228;2023-09-19T09:12:14;8.70;;;2.22;;
75814;SDS011;70031;45.570;14.228;2023-09-19T09:19:41;6.13;;;1.40;;
75814;SDS011;70031;45.570;14.228;2023-09-19T09:22:34;5.88;;;1.65;;
75814;SDS011;70031;45.570;14.228;2023-09-19T09:27:10;4.68;;;1.40;;
75814;SDS011;70031;45.570;14.228;2023-09-19T09:29:15;6.43;;;1.30;;
75814;SDS011;70031;45.570;14.228;2023-09-19T09:37:37;3.78;;;1.10;;
75814;SDS011;70031;45.570;14.228;2023-09-19T09:47:50;3.75;;;1.10;;
75814;SDS011;70031;45.570;14.228;2023-09-19T09:57:23;2.70;;;1.30;;
75814;SDS011;70031;45.570;14.228;2023-09-19T10:02:18;2.13;;;0.93;;
75814;SDS011;70031;45.570;14.228;2023-09-19T10:04:39;4.70;;;1.17;;
75814;SDS011;70031;45.570;14.228;2023-09-19T10:06:59;8.35;;;1.85;;
75814;SDS011;70031;45.570;14.228;2023-09-19T10:09:11;6.75;;;1.40;;
75814;SDS011;70031;45.570;14.228;2023-09-19T10:11:16;3.20;;;1.27;;
75814;SDS011;70031;45.570;14.228;2023-09-19T10:13:37;2.58;;;1.20;;
75814;SDS011;70031;45.570;14.228;2023-09-19T10:16:00;4.80;;;1.63;;
75814;SDS011;70031;45.570;14.228;2023-09-19T10:18:12;3.78;;;1.20;;
75814;SDS011;70031;45.570;14.228;2023-09-19T10:26:11;5.88;;;1.35;;
75814;SDS011;70031;45.570;14.228;2023-09-19T10:31:27;3.75;;;1.20;;
75814;SDS011;70031;45.570;14.228;2023-09-19T10:36:34;4.38;;;1.20;;
75814;SDS011;70031;45.570;14.228;2023-09-19T10:38:44;4.32;;;1.60;;
75814;SDS011;70031;45.570;14.228;2023-09-19T10:41:01;7.00;;;1.48;;
75814;SDS011;70031;45.570;14.228;2023-09-19T10:49:58;3.55;;;1.50;;
75814;SDS011;70031;45.570;14.228;2023-09-19T10:52:31;3.08;;;1.20;;
75814;SDS011;70031;45.570;14.228;2023-09-19T10:55:15;3.42;;;1.55;;
75814;SDS011;70031;45.570;14.228;2023-09-19T10:58:08;5.50;;;1.65;;
75814;SDS011;70031;45.570;14.228;2023-09-19T11:00:17;3.90;;;1.80;;
75814;SDS011;70031;45.570;14.228;2023-09-19T11:05:14;4.80;;;1.77;;
75814;SDS011;70031;45.570;14.228;2023-09-19T11:07:29;5.60;;;1.83;;
75814;SDS011;70031;45.570;14.228;2023-09-19T11:09:50;3.53;;;1.55;;
75814;SDS011;70031;45.570;14.228;2023-09-19T11:14:37;4.57;;;1.83;;
75814;SDS011;70031;45.570;14.228;2023-09-19T11:22:18;4.70;;;1.25;;
75814;SDS011;70031;45.570;14.228;2023-09-19T11:26:40;2.17;;;1.40;;
75814;SDS011;70031;45.570;14.228;2023-09-19T11:29:06;4.75;;;1.40;;
75814;SDS011;70031;45.570;14.228;2023-09-19T11:31:41;6.22;;;2.10;;
75814;SDS011;70031;45.570;14.228;2023-09-19T11:34:36;4.82;;;1.50;;
75814;SDS011;70031;45.570;14.228;2023-09-19T11:36:43;2.95;;;1.55;;
75814;SDS011;70031;45.570;14.228;2023-09-19T11:39:27;5.57;;;1.60;;
75814;SDS011;70031;45.570;14.228;2023-09-19T11:46:09;3.45;;;1.25;;
75814;SDS011;70031;45.570;14.228;2023-09-19T11:48:32;2.65;;;1.40;;
75814;SDS011;70031;45.570;14.228;2023-09-19T11:50:47;1.85;;;1.20;;
75814;SDS011;70031;45.570;14.228;2023-09-19T11:52:49;4.85;;;1.58;;
75814;SDS011;70031;45.570;14.228;2023-09-19T11:57:28;3.53;;;1.23;;
75814;SDS011;70031;45.570;14.228;2023-09-19T11:59:38;4.85;;;1.33;;
75814;SDS011;70031;45.570;14.228;2023-09-19T12:01:42;4.45;;;1.40;;
75814;SDS011;70031;45.570;14.228;2023-09-19T12:03:59;3.88;;;1.48;;
75814;SDS011;70031;45.570;14.228;2023-09-19T12:06:10;148.27;;;24.60;;
75814;SDS011;70031;45.570;14.228;2023-09-19T12:08:19;13.82;;;3.38;;
75814;SDS011;70031;45.570;14.228;2023-09-19T12:10:21;3.63;;;1.50;;
75814;SDS011;70031;45.570;14.228;2023-09-19T12:12:26;30.85;;;6.88;;
75814;SDS011;70031;45.570;14.228;2023-09-19T12:14:39;7.00;;;2.25;;
75814;SDS011;70031;45.570;14.228;2023-09-19T12:16:56;4.43;;;1.50;;
75814;SDS011;70031;45.570;14.228;2023-09-19T12:19:17;36.72;;;4.65;;
75814;SDS011;70031;45.570;14.228;2023-09-19T12:21:25;3.65;;;1.52;;
75814;SDS011;70031;45.570;14.228;2023-09-19T12:23:27;6.38;;;1.73;;
75814;SDS011;70031;45.570;14.228;2023-09-19T12:25:41;7.78;;;2.22;;
75814;SDS011;70031;45.570;14.228;2023-09-19T12:27:47;4.13;;;1.52;;
75814;SDS011;70031;45.570;14.228;2023-09-19T12:29:52;4.70;;;1.60;;
75814;SDS011;70031;45.570;14.228;2023-09-19T12:31:59;3.05;;;1.65;;
75814;SDS011;70031;45.570;14.228;2023-09-19T12:34:03;6.13;;;1.98;;
75814;SDS011;70031;45.570;14.228;2023-09-19T12:36:25;6.28;;;1.70;;
75814;SDS011;70031;45.570;14.228;2023-09-19T12:38:32;5.07;;;1.30;;
75814;SDS011;70031;45.570;14.228;2023-09-19T12:40:34;3.15;;;1.15;;
75814;SDS011;70031;45.570;14.228;2023-09-19T12:42:38;5.25;;;1.42;;
75814;SDS011;70031;45.570;14.228;2023-09-19T12:44:40;4.03;;;1.55;;
75814;SDS011;70031;45.570;14.228;2023-09-19T12:46:50;2.58;;;1.27;;
75814;SDS011;70031;45.570;14.228;2023-09-19T12:49:14;5.82;;;1.60;;
75814;SDS011;70031;45.570;14.228;2023-09-19T12:51:34;10.57;;;1.88;;
75814;SDS011;70031;45.570;14.228;2023-09-19T12:53:37;3.10;;;1.38;;
75814;SDS011;70031;45.570;14.228;2023-09-19T12:55:45;6.07;;;1.55;;
75814;SDS011;70031;45.570;14.228;2023-09-19T12:58:13;4.78;;;1.50;;
75814;SDS011;70031;45.570;14.228;2023-09-19T13:00:15;8.80;;;1.75;;
75814;SDS011;70031;45.570;14.228;2023-09-19T13:02:17;5.07;;;1.50;;
75814;SDS011;70031;45.570;14.228;2023-09-19T13:04:37;4.18;;;1.63;;
75814;SDS011;70031;45.570;14.228;2023-09-19T13:07:06;6.68;;;1.77;;
75814;SDS011;70031;45.570;14.228;2023-09-19T13:09:13;5.38;;;1.55;;
75814;SDS011;70031;45.570;14.228;2023-09-19T13:11:15;3.78;;;1.42;;
75814;SDS011;70031;45.570;14.228;2023-09-19T13:13:24;4.82;;;1.40;;
75814;SDS011;70031;45.570;14.228;2023-09-19T13:15:27;5.60;;;1.63;;
75814;SDS011;70031;45.570;14.228;2023-09-19T13:17:51;6.55;;;1.42;;
75814;SDS011;70031;45.570;14.228;2023-09-19T13:20:01;8.67;;;1.83;;
75814;SDS011;70031;45.570;14.228;2023-09-19T13:22:03;5.68;;;1.60;;
75814;SDS011;70031;45.570;14.228;2023-09-19T13:24:24;2.72;;;1.30;;
75814;SDS011;70031;45.570;14.228;2023-09-19T13:26:28;4.63;;;1.50;;
75814;SDS011;70031;45.570;14.228;2023-09-19T13:28:29;4.50;;;1.60;;
75814;SDS011;70031;45.570;14.228;2023-09-19T13:30:29;5.43;;;1.65;;
75814;SDS011;70031;45.570;14.228;2023-09-19T13:32:32;5.28;;;1.63;;
75814;SDS011;70031;45.570;14.228;2023-09-19T13:34:33;3.33;;;1.37;;
75814;SDS011;70031;45.570;14.228;2023-09-19T13:36:33;6.80;;;1.60;;
75814;SDS011;70031;45.570;14.228;2023-09-19T13:38:33;3.92;;;1.58;;
75814;SDS011;70031;45.570;14.228;2023-09-19T13:40:34;5.72;;;1.40;;
75814;SDS011;70031;45.570;14.228;2023-09-19T13:42:44;4.82;;;1.20;;
75814;SDS011;70031;45.570;14.228;2023-09-19T13:44:44;4.32;;;1.60;;
75814;SDS011;70031;45.570;14.228;2023-09-19T13:46:45;7.13;;;1.70;;
75814;SDS011;70031;45.570;14.228;2023-09-19T13:48:45;6.32;;;1.70;;
75814;SDS011;70031;45.570;14.228;2023-09-19T13:50:46;4.32;;;1.67;;
75814;SDS011;70031;45.570;14.228;2023-09-19T13:52:46;5.28;;;2.15;;
75814;SDS011;70031;45.570;14.228;2023-09-19T13:54:48;4.80;;;1.50;;
75814;SDS011;70031;45.570;14.228;2023-09-19T13:56:50;5.13;;;1.40;;
75814;SDS011;70031;45.570;14.228;2023-09-19T13:58:50;5.85;;;1.55;;
75814;SDS011;70031;45.570;14.228;2023-09-19T14:00:51;4.28;;;1.40;;
75814;SDS011;70031;45.570;14.228;2023-09-19T14:02:55;4.80;;;1.50;;
75814;SDS011;70031;45.570;14.228;2023-09-19T14:04:58;3.88;;;1.40;;
75814;SDS011;70031;45.570;14.228;2023-09-19T14:07:04;5.78;;;1.52;;
75814;SDS011;70031;45.570;14.228;2023-09-19T14:09:05;5.15;;;1.60;;
75814;SDS011;70031;45.570;14.228;2023-09-19T14:11:06;4.47;;;1.58;;
75814;SDS011;70031;45.570;14.228;2023-09-19T14:13:12;6.45;;;1.50;;
75814;SDS011;70031;45.570;14.228;2023-09-19T14:15:15;6.00;;;1.70;;
75814;SDS011;70031;45.570;14.228;2023-09-19T14:17:16;4.70;;;1.75;;
75814;SDS011;70031;45.570;14.228;2023-09-19T14:19:16;4.35;;;1.70;;
75814;SDS011;70031;45.570;14.228;2023-09-19T14:21:17;7.05;;;1.60;;
75814;SDS011;70031;45.570;14.228;2023-09-19T14:23:18;5.07;;;1.58;;
75814;SDS011;70031;45.570;14.228;2023-09-19T14:25:18;5.07;;;1.70;;
75814;SDS011;70031;45.570;14.228;2023-09-19T14:27:29;3.83;;;1.65;;
75814;SDS011;70031;45.570;14.228;2023-09-19T14:29:30;7.65;;;1.60;;
75814;SDS011;70031;45.570;14.228;2023-09-19T14:31:31;2.75;;;1.35;;
75814;SDS011;70031;45.570;14.228;2023-09-19T14:33:37;4.45;;;1.50;;
75814;SDS011;70031;45.570;14.228;2023-09-19T14:35:41;5.75;;;1.30;;
75814;SDS011;70031;45.570;14.228;2023-09-19T14:37:44;6.40;;;1.67;;
75814;SDS011;70031;45.570;14.228;2023-09-19T14:40:00;6.25;;;1.40;;
75814;SDS011;70031;45.570;14.228;2023-09-19T14:42:03;8.50;;;1.63;;
75814;SDS011;70031;45.570;14.228;2023-09-19T14:44:04;4.55;;;1.60;;
75814;SDS011;70031;45.570;14.228;2023-09-19T14:46:14;6.10;;;1.20;;
75814;SDS011;70031;45.570;14.228;2023-09-19T14:48:17;3.53;;;1.33;;
75814;SDS011;70031;45.570;14.228;2023-09-19T14:50:20;7.72;;;1.50;;
75814;SDS011;70031;45.570;14.228;2023-09-19T14:52:22;6.63;;;1.50;;
75814;SDS011;70031;45.570;14.228;2023-09-19T14:54:39;5.15;;;1.70;;
75814;SDS011;70031;45.570;14.228;2023-09-19T14:56:49;7.10;;;1.60;;
75814;SDS011;70031;45.570;14.228;2023-09-19T14:59:04;5.60;;;1.48;;
75814;SDS011;70031;45.570;14.228;2023-09-19T15:01:10;4.72;;;1.60;;
75814;SDS011;70031;45.570;14.228;2023-09-19T15:03:15;5.00;;;1.50;;
75814;SDS011;70031;45.570;14.228;2023-09-19T15:05:29;6.30;;;1.73;;
75814;SDS011;70031;45.570;14.228;2023-09-19T15:07:39;5.13;;;1.50;;
75814;SDS011;70031;45.570;14.228;2023-09-19T15:09:42;3.78;;;1.23;;
75814;SDS011;70031;45.570;14.228;2023-09-19T15:11:48;3.63;;;1.52;;
75814;SDS011;70031;45.570;14.228;2023-09-19T15:13:52;3.85;;;1.67;;
75814;SDS011;70031;45.570;14.228;2023-09-19T15:15:59;6.57;;;1.88;;
75814;SDS011;70031;45.570;14.228;2023-09-19T15:18:18;6.13;;;1.77;;
75814;SDS011;70031;45.570;14.228;2023-09-19T15:20:26;4.75;;;1.55;;
75814;SDS011;70031;45.570;14.228;2023-09-19T15:22:27;4.75;;;1.60;;
75814;SDS011;70031;45.570;14.228;2023-09-19T15:27:26;4.20;;;1.40;;
75814;SDS011;70031;45.570;14.228;2023-09-19T15:29:27;3.90;;;1.63;;
75814;SDS011;70031;45.570;14.228;2023-09-19T15:31:46;4.60;;;1.55;;
75814;SDS011;70031;45.570;14.228;2023-09-19T15:33:52;4.20;;;1.50;;
75814;SDS011;70031;45.570;14.228;2023-09-19T15:36:13;4.30;;;1.60;;
75814;SDS011;70031;45.570;14.228;2023-09-19T15:38:22;4.38;;;1.48;;
75814;SDS011;70031;45.570;14.228;2023-09-19T15:40:22;4.22;;;1.50;;
75814;SDS011;70031;45.570;14.228;2023-09-19T15:43:03;8.25;;;1.92;;
75814;SDS011;70031;45.570;14.228;2023-09-19T15:45:07;3.28;;;1.52;;
75814;SDS011;70031;45.570;14.228;2023-09-19T15:47:10;3.67;;;1.50;;
75814;SDS011;70031;45.570;14.228;2023-09-19T15:49:13;5.25;;;1.65;;